Shatki, Russia
Current Conditions -  °F | °C
As of 3:30 PM on Wednesday 22 Oct 2014 (Local Time) from UWGG Reporting Station
Snow Showers Snow Showers  
Wind Chill: 11°   Ceiling: 900
Heat Index: 21°   Visibility: 0.68mi
Dew Point: 18°   Wind: 9mph
Humidity: 86%   Direction: 320°NW
Pressure: 29.74"   Gusts: 20mph
Location:  55.19°N, 44.13°E
Report Text: UWGG 221230Z 32004G09MPS 1100 R36L/0800V1400D SHSN BKN009CBM06/M08 Q1007 TEMPO 31006G11MPS 1000 SHSN BLSN OVC005CB 36490535RMK QFE748
Loading
Personal Weather Stations






























Interactive Weather Map
Tropical Storm Tracking
New forecast layout! Learn more

10-Day Weather Forecast

Advertisements
Track Severe Weather on mobile